AAL1422 KLAX-KIAD
Flight info
| Callsign | AAL1422 |
|---|---|
| Flight time | N/A |
| Altitude | 34000 |
| Route | ORCKA5 LAS J146 DVC HLC STJ SPI/N0484F410 J80 VHP APE MGW GIBBZ5 |
| Aircraft | B789/H-VGDW/C |
Departure
| Time | 2026-04-26 04:39 |
|---|---|
| Airport | Los Angeles International Airport (KLAX) |
Arrival
| Time | N/A |
|---|---|
| Airport | Washington Dulles International Airport (KIAD) |
| Time | Latitude | Longitude | Altitude | Speed | Heading |
|---|---|---|---|---|---|
| 2026-04-26 04:02 | 33.94023 | -118.40931 | 122 ft | 0 kts | 264° |
| 2026-04-26 04:23 | 33.94024 | -118.40924 | 131 ft | 4 kts | 264° |
| 2026-04-26 04:23 | 33.94027 | -118.40891 | 125 ft | 4 kts | 264° |
| 2026-04-26 04:23 | 33.94030 | -118.40860 | 125 ft | 4 kts | 258° |
| 2026-04-26 04:24 | 33.94036 | -118.40834 | 126 ft | 4 kts | 259° |
| 2026-04-26 04:24 | 33.94038 | -118.40824 | 127 ft | 0 kts | 262° |
| 2026-04-26 04:27 | 33.94038 | -118.40825 | 127 ft | 0 kts | 262° |
| 2026-04-26 04:30 | 33.94035 | -118.40834 | 125 ft | 1 kts | 246° |
| 2026-04-26 04:30 | 33.94016 | -118.40845 | 127 ft | 5 kts | 192° |
| 2026-04-26 04:31 | 33.93984 | -118.40834 | 127 ft | 7 kts | 154° |
| 2026-04-26 04:31 | 33.93918 | -118.40808 | 128 ft | 11 kts | 165° |
| 2026-04-26 04:31 | 33.93884 | -118.40782 | 128 ft | 4 kts | 131° |
| 2026-04-26 04:31 | 33.93856 | -118.40745 | 128 ft | 7 kts | 139° |
| 2026-04-26 04:32 | 33.93815 | -118.40695 | 127 ft | 12 kts | 110° |
| 2026-04-26 04:32 | 33.93817 | -118.40602 | 131 ft | 11 kts | 83° |
| 2026-04-26 04:32 | 33.93826 | -118.40507 | 127 ft | 12 kts | 83° |
| 2026-04-26 04:32 | 33.93836 | -118.40408 | 127 ft | 12 kts | 83° |
| 2026-04-26 04:33 | 33.93847 | -118.40305 | 131 ft | 13 kts | 83° |
| 2026-04-26 04:33 | 33.93858 | -118.40197 | 130 ft | 13 kts | 83° |
| 2026-04-26 04:33 | 33.93869 | -118.40089 | 126 ft | 13 kts | 83° |
| 2026-04-26 04:33 | 33.93880 | -118.39977 | 131 ft | 14 kts | 83° |
| 2026-04-26 04:34 | 33.93892 | -118.39863 | 129 ft | 14 kts | 83° |
| 2026-04-26 04:34 | 33.93904 | -118.39744 | 129 ft | 14 kts | 83° |
| 2026-04-26 04:34 | 33.93916 | -118.39623 | 131 ft | 15 kts | 83° |
| 2026-04-26 04:34 | 33.93928 | -118.39500 | 129 ft | 15 kts | 83° |
| 2026-04-26 04:35 | 33.93942 | -118.39376 | 126 ft | 15 kts | 82° |
| 2026-04-26 04:35 | 33.93956 | -118.39250 | 126 ft | 16 kts | 82° |
| 2026-04-26 04:35 | 33.93969 | -118.39110 | 127 ft | 17 kts | 83° |
| 2026-04-26 04:35 | 33.93984 | -118.38960 | 126 ft | 19 kts | 83° |
| 2026-04-26 04:36 | 33.94001 | -118.38800 | 127 ft | 20 kts | 82° |
| 2026-04-26 04:36 | 33.94018 | -118.38631 | 128 ft | 21 kts | 83° |
| 2026-04-26 04:36 | 33.94035 | -118.38460 | 128 ft | 21 kts | 83° |
| 2026-04-26 04:36 | 33.94053 | -118.38288 | 127 ft | 21 kts | 83° |
| 2026-04-26 04:37 | 33.94070 | -118.38117 | 128 ft | 20 kts | 83° |
| 2026-04-26 04:37 | 33.94077 | -118.38043 | 131 ft | 4 kts | 91° |
| 2026-04-26 04:37 | 33.94028 | -118.37994 | 128 ft | 11 kts | 180° |
| 2026-04-26 04:37 | 33.93993 | -118.38022 | 126 ft | 7 kts | 232° |
| 2026-04-26 04:38 | 33.93977 | -118.38114 | 131 ft | 20 kts | 264° |
| 2026-04-26 04:38 | 33.93938 | -118.38488 | 126 ft | 83 kts | 262° |
| 2026-04-26 04:38 | 33.93833 | -118.39504 | 132 ft | 159 kts | 263° |
| 2026-04-26 04:38 | 33.93683 | -118.41010 | 607 ft | 186 kts | 267° |
| 2026-04-26 04:39 | 33.93510 | -118.42661 | 1355 ft | 212 kts | 262° |
| 2026-04-26 04:39 | 33.93327 | -118.44494 | 1950 ft | 228 kts | 263° |
| 2026-04-26 04:39 | 33.93137 | -118.46439 | 2536 ft | 240 kts | 263° |
| 2026-04-26 04:39 | 33.92933 | -118.48467 | 3032 ft | 244 kts | 263° |
| 2026-04-26 04:40 | 33.92726 | -118.50500 | 3570 ft | 246 kts | 263° |
| 2026-04-26 04:40 | 33.92518 | -118.52547 | 4102 ft | 247 kts | 263° |
| 2026-04-26 04:40 | 33.92310 | -118.54607 | 4658 ft | 248 kts | 263° |
| 2026-04-26 04:40 | 33.92102 | -118.56696 | 5009 ft | 256 kts | 263° |
| 2026-04-26 04:41 | 33.91894 | -118.58801 | 5324 ft | 251 kts | 263° |
| 2026-04-26 04:41 | 33.91686 | -118.60893 | 5641 ft | 252 kts | 263° |
| 2026-04-26 04:41 | 33.91477 | -118.62996 | 5974 ft | 253 kts | 263° |
| 2026-04-26 04:41 | 33.91267 | -118.65102 | 6293 ft | 254 kts | 263° |
| 2026-04-26 04:42 | 33.91030 | -118.67210 | 6592 ft | 254 kts | 257° |
| 2026-04-26 04:42 | 33.90095 | -118.68980 | 6952 ft | 258 kts | 217° |
| 2026-04-26 04:42 | 33.88411 | -118.69702 | 7356 ft | 265 kts | 182° |
| 2026-04-26 04:42 | 33.86565 | -118.69390 | 7760 ft | 272 kts | 163° |
| 2026-04-26 04:43 | 33.84936 | -118.68266 | 8146 ft | 278 kts | 141° |
| 2026-04-26 04:43 | 33.83585 | -118.66578 | 8560 ft | 282 kts | 134° |
| 2026-04-26 04:43 | 33.82212 | -118.64880 | 8950 ft | 283 kts | 140° |
| 2026-04-26 04:43 | 33.80718 | -118.63331 | 9359 ft | 284 kts | 144° |
| 2026-04-26 04:44 | 33.79180 | -118.61827 | 9752 ft | 286 kts | 143° |
| 2026-04-26 04:44 | 33.77653 | -118.60269 | 10127 ft | 289 kts | 142° |
| 2026-04-26 04:44 | 33.76127 | -118.58675 | 10483 ft | 292 kts | 142° |
| 2026-04-26 04:44 | 33.74583 | -118.57078 | 10858 ft | 294 kts | 143° |
| 2026-04-26 04:45 | 33.73020 | -118.55474 | 11216 ft | 297 kts | 143° |
| 2026-04-26 04:45 | 33.71427 | -118.53842 | 11597 ft | 308 kts | 143° |
| 2026-04-26 04:45 | 33.69866 | -118.51971 | 11984 ft | 331 kts | 125° |
| 2026-04-26 04:45 | 33.68871 | -118.49391 | 12434 ft | 350 kts | 114° |
| 2026-04-26 04:46 | 33.68309 | -118.47552 | 12718 ft | 359 kts | 111° |
| 2026-04-26 04:46 | 33.67524 | -118.44670 | 13143 ft | 366 kts | 110° |
| 2026-04-26 04:46 | 33.66697 | -118.41755 | 13578 ft | 371 kts | 112° |
| 2026-04-26 04:46 | 33.65806 | -118.38831 | 13969 ft | 375 kts | 113° |
| 2026-04-26 04:47 | 33.64914 | -118.35879 | 14329 ft | 377 kts | 111° |
| 2026-04-26 04:47 | 33.64452 | -118.32772 | 14696 ft | 382 kts | 91° |
| 2026-04-26 04:47 | 33.64437 | -118.29561 | 15068 ft | 387 kts | 91° |
| 2026-04-26 04:47 | 33.64455 | -118.26321 | 15436 ft | 389 kts | 90° |
| 2026-04-26 04:48 | 33.64679 | -118.19811 | 16184 ft | 393 kts | 74° |
| 2026-04-26 04:48 | 33.65704 | -118.16775 | 16610 ft | 393 kts | 54° |
| 2026-04-26 04:48 | 33.67411 | -118.14240 | 16969 ft | 393 kts | 43° |
| 2026-04-26 04:49 | 33.69303 | -118.11820 | 16963 ft | 397 kts | 42° |
| 2026-04-26 04:49 | 33.71212 | -118.09454 | 16961 ft | 392 kts | 42° |
| 2026-04-26 04:49 | 33.73100 | -118.07093 | 16962 ft | 393 kts | 43° |
| 2026-04-26 04:49 | 33.75032 | -118.04643 | 17224 ft | 413 kts | 43° |
| 2026-04-26 04:50 | 33.77055 | -118.02076 | 17658 ft | 432 kts | 43° |
| 2026-04-26 04:50 | 33.79165 | -117.99409 | 18092 ft | 449 kts | 43° |
| 2026-04-26 04:50 | 33.81349 | -117.96648 | 18518 ft | 463 kts | 43° |
| 2026-04-26 04:50 | 33.83598 | -117.93796 | 18901 ft | 475 kts | 43° |
| 2026-04-26 04:51 | 33.85891 | -117.90882 | 19266 ft | 482 kts | 43° |
| 2026-04-26 04:51 | 33.88204 | -117.87945 | 19638 ft | 485 kts | 43° |
| 2026-04-26 04:51 | 33.90539 | -117.84980 | 20014 ft | 489 kts | 43° |
| 2026-04-26 04:51 | 33.92883 | -117.82000 | 20399 ft | 492 kts | 43° |
| 2026-04-26 04:52 | 33.95240 | -117.79000 | 20791 ft | 494 kts | 43° |
| 2026-04-26 04:52 | 33.97609 | -117.75981 | 21171 ft | 497 kts | 43° |
| 2026-04-26 04:52 | 33.99986 | -117.72952 | 21552 ft | 499 kts | 43° |
| 2026-04-26 04:52 | 34.02382 | -117.69895 | 21940 ft | 502 kts | 43° |
| 2026-04-26 04:53 | 34.04786 | -117.66825 | 22307 ft | 505 kts | 43° |
| 2026-04-26 04:53 | 34.07201 | -117.63737 | 22696 ft | 508 kts | 43° |
| 2026-04-26 04:53 | 34.09636 | -117.60622 | 23089 ft | 511 kts | 43° |
| 2026-04-26 04:53 | 34.12080 | -117.57492 | 23497 ft | 514 kts | 43° |
| 2026-04-26 04:54 | 34.14537 | -117.54343 | 23843 ft | 517 kts | 43° |
| 2026-04-26 04:54 | 34.17005 | -117.51176 | 24169 ft | 519 kts | 43° |
| 2026-04-26 04:54 | 34.19456 | -117.48029 | 24507 ft | 523 kts | 43° |
| 2026-04-26 04:54 | 34.21986 | -117.44779 | 24855 ft | 526 kts | 42° |
| 2026-04-26 04:55 | 34.24496 | -117.41550 | 25214 ft | 529 kts | 43° |
| 2026-04-26 04:55 | 34.26990 | -117.38338 | 25559 ft | 532 kts | 42° |
| 2026-04-26 04:55 | 34.29523 | -117.35072 | 25912 ft | 534 kts | 42° |
| 2026-04-26 04:55 | 34.32078 | -117.31777 | 26279 ft | 538 kts | 42° |
| 2026-04-26 04:56 | 34.34677 | -117.28422 | 26650 ft | 541 kts | 42° |
| 2026-04-26 04:56 | 34.37223 | -117.25130 | 26979 ft | 544 kts | 42° |
| 2026-04-26 04:56 | 34.39813 | -117.21777 | 27363 ft | 547 kts | 42° |
| 2026-04-26 04:56 | 34.42414 | -117.18410 | 27746 ft | 549 kts | 42° |
| 2026-04-26 04:57 | 34.45025 | -117.15026 | 28129 ft | 550 kts | 42° |
| 2026-04-26 04:57 | 34.47637 | -117.11636 | 28507 ft | 551 kts | 42° |
| 2026-04-26 04:57 | 34.50254 | -117.08235 | 28910 ft | 551 kts | 42° |
| 2026-04-26 04:57 | 34.52870 | -117.04834 | 29305 ft | 551 kts | 42° |
| 2026-04-26 04:58 | 34.55487 | -117.01429 | 29704 ft | 552 kts | 42° |
| 2026-04-26 04:58 | 34.58100 | -116.98025 | 30057 ft | 551 kts | 42° |
| 2026-04-26 04:58 | 34.60709 | -116.94622 | 30399 ft | 551 kts | 42° |
| 2026-04-26 04:58 | 34.63321 | -116.91213 | 30758 ft | 551 kts | 42° |
| 2026-04-26 04:59 | 34.65926 | -116.87808 | 31120 ft | 550 kts | 42° |
| 2026-04-26 04:59 | 34.68530 | -116.84402 | 31454 ft | 550 kts | 41° |
| 2026-04-26 04:59 | 34.71132 | -116.80996 | 31842 ft | 549 kts | 41° |
| 2026-04-26 04:59 | 34.73727 | -116.77595 | 32212 ft | 549 kts | 41° |
| 2026-04-26 05:00 | 34.76320 | -116.74194 | 32587 ft | 548 kts | 41° |
| 2026-04-26 05:00 | 34.78909 | -116.70795 | 32850 ft | 548 kts | 41° |
| 2026-04-26 05:00 | 34.84150 | -116.63906 | 32854 ft | 560 kts | 41° |
| 2026-04-26 05:01 | 34.89442 | -116.56926 | 32859 ft | 561 kts | 41° |
| 2026-04-26 05:01 | 34.94742 | -116.49930 | 32821 ft | 562 kts | 41° |
| 2026-04-26 05:02 | 35.00046 | -116.42911 | 32806 ft | 563 kts | 41° |
| 2026-04-26 05:02 | 35.05346 | -116.35883 | 32803 ft | 563 kts | 41° |
| 2026-04-26 05:03 | 35.10648 | -116.28840 | 32802 ft | 563 kts | 41° |
| 2026-04-26 05:03 | 35.15945 | -116.21787 | 32791 ft | 564 kts | 41° |
| 2026-04-26 05:04 | 35.21240 | -116.14722 | 32807 ft | 563 kts | 41° |
| 2026-04-26 05:04 | 35.26485 | -116.07711 | 32804 ft | 563 kts | 41° |
| 2026-04-26 05:05 | 35.31771 | -116.00629 | 32801 ft | 563 kts | 41° |
| 2026-04-26 05:05 | 35.37047 | -115.93544 | 32810 ft | 562 kts | 41° |
| 2026-04-26 05:06 | 35.42315 | -115.86459 | 32818 ft | 562 kts | 41° |
| 2026-04-26 05:06 | 35.47571 | -115.79372 | 32824 ft | 561 kts | 41° |
| 2026-04-26 05:07 | 35.52820 | -115.72282 | 32819 ft | 561 kts | 42° |
| 2026-04-26 05:07 | 35.58057 | -115.65190 | 32826 ft | 560 kts | 42° |
| 2026-04-26 05:08 | 35.63286 | -115.58099 | 32813 ft | 559 kts | 42° |
| 2026-04-26 05:08 | 35.68496 | -115.51015 | 32818 ft | 559 kts | 42° |
| 2026-04-26 05:09 | 35.73701 | -115.43923 | 32809 ft | 558 kts | 42° |
| 2026-04-26 05:09 | 35.78852 | -115.36890 | 32809 ft | 557 kts | 42° |
| 2026-04-26 05:10 | 35.84035 | -115.29801 | 32801 ft | 556 kts | 42° |
| 2026-04-26 05:10 | 35.89202 | -115.22715 | 32807 ft | 556 kts | 42° |
| 2026-04-26 05:11 | 35.94369 | -115.15618 | 32802 ft | 555 kts | 43° |
| 2026-04-26 05:11 | 35.99522 | -115.08521 | 32806 ft | 554 kts | 43° |
| 2026-04-26 05:12 | 36.04659 | -115.01438 | 33061 ft | 553 kts | 46° |
| 2026-04-26 05:12 | 36.07222 | -114.97907 | 32924 ft | 547 kts | 49° |
| 2026-04-26 05:12 | 36.09741 | -114.94405 | 32724 ft | 543 kts | 49° |
| 2026-04-26 05:13 | 36.14753 | -114.87464 | 32704 ft | 542 kts | 49° |
| 2026-04-26 05:13 | 36.19038 | -114.79858 | 32712 ft | 539 kts | 69° |
| 2026-04-26 05:14 | 36.21743 | -114.71236 | 32679 ft | 537 kts | 72° |
| 2026-04-26 05:14 | 36.24376 | -114.62565 | 32652 ft | 538 kts | 72° |
| 2026-04-26 05:15 | 36.27024 | -114.53899 | 32644 ft | 538 kts | 72° |
| 2026-04-26 05:15 | 36.29654 | -114.45216 | 32642 ft | 538 kts | 72° |
| 2026-04-26 05:16 | 36.32288 | -114.36523 | 32644 ft | 539 kts | 73° |
| 2026-04-26 05:16 | 36.34913 | -114.27816 | 32642 ft | 539 kts | 73° |